Time;durP1;ratioP1;P1;durP2;ratioP2;P2;SDS_P1;SDS_P2;PMS_P1;PMS_P2;Temp;Humidity;BMP_temperature;BMP_pressure;BME280_temperature;BME280_humidity;BME280_pressure;Samples;Min_cycle;Max_cycle;Signal;HPM_P1;HPM_P2
2021/12/11 00:00:35;;;;;;;;;;;1.30;99.90;;;;;;5034167;28;20426;-85
2021/12/11 00:03:03;;;;;;;;;;;1.30;99.90;;;;;;5034941;28;19912;-83
2021/12/11 00:05:29;;;;;;;;;;;1.30;99.90;;;;;;5017244;28;19917;-85
2021/12/11 00:07:55;;;;;;;;;;;1.30;99.90;;;;;;5030662;28;19971;-84
2021/12/11 00:10:31;;;;;;;;;;;1.30;99.90;;;;;;5033502;28;20390;-84
2021/12/11 00:13:00;;;;;;;;;;;1.30;99.90;;;;;;5034756;28;19909;-86
2021/12/11 00:15:31;;;;;;;;;;;1.30;99.90;;;;;;5011943;28;19909;-85
2021/12/11 00:17:58;;;;;;;;;;;1.30;99.90;;;;;;5031944;28;19909;-83
2021/12/11 00:20:29;;;;;;;;;;;1.30;99.90;;;;;;5014786;28;19920;-87
2021/12/11 00:22:55;;;;;;;;;;;1.30;99.90;;;;;;5037544;28;19909;-86
2021/12/11 00:25:21;;;;;;;;;;;1.30;99.90;;;;;;5029804;28;19918;-85
2021/12/11 00:27:48;;;;;;;;;;;1.30;99.90;;;;;;5016798;28;19916;-86
2021/12/11 00:30:22;;;;;;;;;;;1.30;99.90;;;;;;5033897;28;20391;-87
2021/12/11 00:32:48;;;;;;;;;;;1.40;99.90;;;;;;5016883;28;19994;-85
2021/12/11 00:35:18;;;;;;;;;;;1.30;99.90;;;;;;5032631;28;20368;-85
2021/12/11 00:37:44;;;;;;;;;;;1.30;99.90;;;;;;5034425;28;19953;-86
2021/12/11 00:40:20;;;;;;;;;;;1.20;99.90;;;;;;5016145;28;19956;-84
2021/12/11 00:42:56;;;;;;;;;;;1.30;99.90;;;;;;5031277;28;19923;-86
2021/12/11 00:45:24;;;;;;;;;;;1.30;99.90;;;;;;5029676;28;20317;-85
2021/12/11 00:47:51;;;;;;;;;;;1.30;99.90;;;;;;5015735;28;19916;-83
2021/12/11 00:50:20;;;;;;;;;;;1.30;99.90;;;;;;5032405;28;19916;-84
2021/12/11 00:52:57;;;;;;;;;;;1.30;99.90;;;;;;5033850;28;19909;-87
2021/12/11 00:55:25;;;;;;;;;;;1.30;99.90;;;;;;5011451;28;19925;-85
2021/12/11 00:58:00;;;;;;;;;;;1.30;99.90;;;;;;5033991;28;19909;-86
2021/12/11 01:00:27;;;;;;;;;;;1.30;99.90;;;;;;5033277;28;19913;-84
2021/12/11 01:02:54;;;;;;;;;;;1.20;99.90;;;;;;5033811;28;20427;-86
2021/12/11 01:05:20;;;;;;;;;;;1.20;99.90;;;;;;5011219;28;19945;-85
2021/12/11 01:07:46;;;;;;;;;;;1.30;99.90;;;;;;4999764;28;19917;-85
2021/12/11 01:10:16;;;;;;;;;;;1.30;99.90;;;;;;5033393;28;19913;-87
2021/12/11 01:12:48;;;;;;;;;;;1.30;99.90;;;;;;5012103;28;19959;-85
2021/12/11 01:15:24;;;;;;;;;;;1.30;99.90;;;;;;5019968;28;19972;-85
2021/12/11 01:18:02;;;;;;;;;;;1.30;99.90;;;;;;5026916;28;19913;-86
2021/12/11 01:20:35;;;;;;;;;;;1.40;99.90;;;;;;5033664;28;19909;-86
2021/12/11 01:23:13;;;;;;;;;;;1.30;99.90;;;;;;5033531;28;19982;-86
2021/12/11 01:25:39;;;;;;;;;;;1.40;99.90;;;;;;5032032;28;20003;-86
2021/12/11 01:28:05;;;;;;;;;;;1.30;99.90;;;;;;5033198;28;19960;-88
2021/12/11 01:30:34;;;;;;;;;;;1.40;99.90;;;;;;4998590;28;20361;-87
2021/12/11 01:33:00;;;;;;;;;;;1.40;99.90;;;;;;5033089;28;19913;-88
2021/12/11 01:35:26;;;;;;;;;;;1.40;99.90;;;;;;5013331;28;19913;-85
2021/12/11 01:37:59;;;;;;;;;;;1.40;99.90;;;;;;5013122;28;19962;-84
2021/12/11 01:40:30;;;;;;;;;;;1.40;99.90;;;;;;5028511;28;20004;-86
2021/12/11 01:42:56;;;;;;;;;;;1.40;99.90;;;;;;5013604;28;19924;-86
2021/12/11 01:45:22;;;;;;;;;;;1.40;99.90;;;;;;5010798;28;19938;-85
2021/12/11 01:47:48;;;;;;;;;;;1.30;99.90;;;;;;5010547;28;19963;-85
2021/12/11 01:50:16;;;;;;;;;;;1.30;99.90;;;;;;5013275;28;20411;-89
2021/12/11 01:52:48;;;;;;;;;;;1.30;99.90;;;;;;5008628;28;20004;-83
2021/12/11 01:55:19;;;;;;;;;;;1.30;99.90;;;;;;5027201;28;19916;-85
2021/12/11 01:57:47;;;;;;;;;;;1.40;99.90;;;;;;5026041;28;19914;-84
2021/12/11 02:00:21;;;;;;;;;;;1.30;99.90;;;;;;5011793;28;20351;-86
2021/12/11 02:02:49;;;;;;;;;;;1.40;99.90;;;;;;5000905;28;19913;-85
2021/12/11 02:05:18;;;;;;;;;;;1.30;99.90;;;;;;5008584;28;19909;-80
2021/12/11 02:07:45;;;;;;;;;;;1.30;99.90;;;;;;5008746;28;19910;-83
2021/12/11 02:10:29;;;;;;;;;;;1.40;99.90;;;;;;5012784;28;19924;-82
2021/12/11 02:12:56;;;;;;;;;;;1.40;99.90;;;;;;5025145;28;20388;-82
2021/12/11 02:15:34;;;;;;;;;;;1.40;99.90;;;;;;5008218;28;19909;-83
2021/12/11 02:18:12;;;;;;;;;;;1.40;99.90;;;;;;5019598;28;19921;-82
2021/12/11 02:20:42;;;;;;;;;;;1.40;99.90;;;;;;5012664;28;19940;-83
2021/12/11 02:23:08;;;;;;;;;;;1.40;99.90;;;;;;5012253;28;19992;-82
2021/12/11 02:25:37;;;;;;;;;;;1.40;99.90;;;;;;5010553;28;20005;-81
2021/12/11 02:28:05;;;;;;;;;;;1.40;99.90;;;;;;5012693;28;19960;-81
2021/12/11 02:30:34;;;;;;;;;;;1.40;99.90;;;;;;5012132;28;20014;-81
2021/12/11 02:33:13;;;;;;;;;;;1.40;99.90;;;;;;5012011;28;19980;-82
2021/12/11 02:35:41;;;;;;;;;;;1.30;99.90;;;;;;5006798;28;19909;-80
2021/12/11 02:38:20;;;;;;;;;;;1.30;99.90;;;;;;5027494;28;19913;-82
2021/12/11 02:41:04;;;;;;;;;;;1.30;99.90;;;;;;5026119;28;19917;-81
2021/12/11 02:43:37;;;;;;;;;;;1.40;99.90;;;;;;5021811;28;19970;-82
2021/12/11 02:46:02;;;;;;;;;;;1.40;99.90;;;;;;5010417;28;20212;-82
2021/12/11 02:48:39;;;;;;;;;;;1.30;99.90;;;;;;5022863;28;19916;-81
2021/12/11 02:51:05;;;;;;;;;;;1.40;99.90;;;;;;5032040;28;19920;-80
2021/12/11 02:53:43;;;;;;;;;;;1.40;99.90;;;;;;5031504;28;20291;-82
2021/12/11 02:56:17;;;;;;;;;;;1.40;99.90;;;;;;5010413;28;19909;-83
2021/12/11 02:58:46;;;;;;;;;;;1.30;99.90;;;;;;5028103;28;19959;-83
2021/12/11 03:01:21;;;;;;;;;;;1.40;99.90;;;;;;5031387;28;19917;-83
2021/12/11 03:03:52;;;;;;;;;;;1.40;99.90;;;;;;5013930;28;19967;-82
2021/12/11 03:06:22;;;;;;;;;;;1.40;99.90;;;;;;5011856;28;19942;-82
2021/12/11 03:08:48;;;;;;;;;;;1.30;99.90;;;;;;5031868;28;19909;-80
2021/12/11 03:11:16;;;;;;;;;;;1.40;99.90;;;;;;5016857;28;19916;-82
2021/12/11 03:13:49;;;;;;;;;;;1.40;99.90;;;;;;5017946;28;19913;-81
2021/12/11 03:16:15;;;;;;;;;;;1.30;99.90;;;;;;5035885;28;19913;-79
2021/12/11 03:18:41;;;;;;;;;;;1.20;99.90;;;;;;5001629;28;20051;-80
2021/12/11 03:21:06;;;;;;;;;;;1.20;99.90;;;;;;5035754;28;19952;-82
2021/12/11 03:23:32;;;;;;;;;;;1.20;99.90;;;;;;5035275;28;19917;-81
2021/12/11 03:25:57;;;;;;;;;;;1.20;99.90;;;;;;5031359;28;20415;-81
2021/12/11 03:28:23;;;;;;;;;;;1.20;99.90;;;;;;5035229;28;20430;-85
2021/12/11 03:30:56;;;;;;;;;;;1.20;99.90;;;;;;5035064;28;19913;-81
2021/12/11 03:33:23;;;;;;;;;;;1.20;99.90;;;;;;5035384;28;19920;-81
2021/12/11 03:35:48;;;;;;;;;;;1.30;99.90;;;;;;5030853;28;20368;-84
2021/12/11 03:38:14;;;;;;;;;;;1.30;99.90;;;;;;5035336;28;19913;-81
2021/12/11 03:40:41;;;;;;;;;;;1.30;99.90;;;;;;5035463;28;19932;-80
2021/12/11 03:43:08;;;;;;;;;;;1.30;99.90;;;;;;5035378;28;19913;-85
2021/12/11 03:45:35;;;;;;;;;;;1.20;99.90;;;;;;5012468;28;19924;-80
2021/12/11 03:48:06;;;;;;;;;;;1.20;99.90;;;;;;5030913;28;19913;-83
2021/12/11 03:50:32;;;;;;;;;;;1.20;99.90;;;;;;5033786;28;19908;-80
2021/12/11 03:52:58;;;;;;;;;;;1.20;99.90;;;;;;5017395;28;20064;-84
2021/12/11 03:55:26;;;;;;;;;;;1.30;99.90;;;;;;5025363;28;20031;-82
2021/12/11 03:57:57;;;;;;;;;;;1.20;99.90;;;;;;5017595;28;19909;-81
2021/12/11 04:00:23;;;;;;;;;;;1.20;99.90;;;;;;5034509;28;19916;-83
2021/12/11 04:02:51;;;;;;;;;;;1.20;99.90;;;;;;5035083;28;19909;-81
2021/12/11 04:05:17;;;;;;;;;;;1.20;99.90;;;;;;5030346;28;19975;-81
2021/12/11 04:07:46;;;;;;;;;;;1.20;99.90;;;;;;5026744;28;20442;-82
2021/12/11 04:10:13;;;;;;;;;;;1.20;99.90;;;;;;5036868;28;19913;-82
2021/12/11 04:12:39;;;;;;;;;;;1.20;99.90;;;;;;5033347;28;19913;-80
2021/12/11 04:15:06;;;;;;;;;;;1.20;99.90;;;;;;5034519;28;20019;-84
2021/12/11 04:17:32;;;;;;;;;;;1.20;99.90;;;;;;5034708;28;19909;-82
2021/12/11 04:19:59;;;;;;;;;;;1.20;99.90;;;;;;5016742;28;19919;-82
2021/12/11 04:22:24;;;;;;;;;;;1.20;99.90;;;;;;5029242;28;19909;-80
2021/12/11 04:24:50;;;;;;;;;;;1.20;99.90;;;;;;5034661;28;20003;-80
2021/12/11 04:27:17;;;;;;;;;;;1.30;99.90;;;;;;5034367;28;19916;-82
2021/12/11 04:29:43;;;;;;;;;;;1.20;99.90;;;;;;5016546;28;20007;-81
2021/12/11 04:32:09;;;;;;;;;;;1.20;99.90;;;;;;5029511;28;19927;-79
2021/12/11 04:34:36;;;;;;;;;;;1.20;99.90;;;;;;5016595;28;19957;-81
2021/12/11 04:37:12;;;;;;;;;;;1.30;99.90;;;;;;5034331;28;19923;-80
2021/12/11 04:39:40;;;;;;;;;;;1.30;99.90;;;;;;5033959;28;19925;-81
2021/12/11 04:42:38;;;;;;;;;;;1.30;99.90;;;;;;5029407;28;20384;-84
2021/12/11 04:44:55;;;;;;;;;;;1.30;99.90;;;;;;5031382;28;20371;-81
2021/12/11 04:50:36;;;;;;;;;;;1.20;99.90;;;;;;4942744;29;19994;-83
2021/12/11 04:53:05;;;;;;;;;;;1.20;99.90;;;;;;5019842;28;20364;-81
2021/12/11 05:00:52;;;;;;;;;;;1.30;99.90;;;;;;5033480;28;19919;-83
2021/12/11 05:11:15;;;;;;;;;;;1.20;99.90;;;;;;5033535;28;19916;-80
2021/12/11 05:13:40;;;;;;;;;;;1.20;99.90;;;;;;5029536;28;19921;-83
2021/12/11 05:16:09;;;;;;;;;;;1.10;99.90;;;;;;5033637;28;19971;-80
2021/12/11 05:18:35;;;;;;;;;;;1.20;99.90;;;;;;5033756;28;20058;-80
2021/12/11 05:21:03;;;;;;;;;;;1.10;99.90;;;;;;5028009;28;19909;-81
2021/12/11 05:23:29;;;;;;;;;;;1.20;99.90;;;;;;5040750;28;19913;-80
2021/12/11 05:25:55;;;;;;;;;;;1.20;99.90;;;;;;5032664;28;20296;-84
2021/12/11 05:28:20;;;;;;;;;;;1.20;99.90;;;;;;5015578;28;19963;-82
2021/12/11 05:30:48;;;;;;;;;;;1.20;99.90;;;;;;5032633;28;19913;-82
2021/12/11 05:33:14;;;;;;;;;;;1.20;99.90;;;;;;5011088;28;19905;-83
2021/12/11 05:35:40;;;;;;;;;;;1.20;99.90;;;;;;5033249;28;19924;-80
2021/12/11 05:38:07;;;;;;;;;;;1.10;99.90;;;;;;5033415;28;19909;-82
2021/12/11 05:40:34;;;;;;;;;;;1.20;99.90;;;;;;5032831;28;19917;-83
2021/12/11 05:42:59;;;;;;;;;;;1.10;99.90;;;;;;5028941;28;19983;-78
2021/12/11 05:45:25;;;;;;;;;;;1.20;99.90;;;;;;5032751;28;20399;-83
2021/12/11 05:47:52;;;;;;;;;;;1.20;99.90;;;;;;5032866;28;19963;-80
2021/12/11 05:50:23;;;;;;;;;;;1.10;99.90;;;;;;5032668;28;19956;-82
2021/12/11 05:52:49;;;;;;;;;;;1.10;99.90;;;;;;5026034;28;19995;-80
2021/12/11 05:55:17;;;;;;;;;;;1.10;99.90;;;;;;5013469;28;19913;-85
2021/12/11 05:57:50;;;;;;;;;;;1.10;99.90;;;;;;5033243;28;19920;-82
2021/12/11 06:00:17;;;;;;;;;;;1.10;99.90;;;;;;5030427;28;19917;-83
2021/12/11 06:02:43;;;;;;;;;;;1.10;99.90;;;;;;5013258;28;19912;-82
2021/12/11 06:05:09;;;;;;;;;;;1.10;99.90;;;;;;5031262;28;20008;-81
2021/12/11 06:07:35;;;;;;;;;;;1.00;99.90;;;;;;5030719;28;19913;-80
2021/12/11 06:10:06;;;;;;;;;;;1.10;99.90;;;;;;5029634;28;19913;-81
2021/12/11 06:12:32;;;;;;;;;;;1.00;99.90;;;;;;5031770;28;20428;-83
2021/12/11 06:14:58;;;;;;;;;;;1.00;99.90;;;;;;5012214;28;20007;-81
2021/12/11 06:17:26;;;;;;;;;;;1.00;99.90;;;;;;5031386;28;19909;-83
2021/12/11 06:19:53;;;;;;;;;;;1.00;99.90;;;;;;5030564;28;19958;-81
2021/12/11 06:22:20;;;;;;;;;;;1.00;99.90;;;;;;5030836;28;19924;-83
2021/12/11 06:24:46;;;;;;;;;;;1.10;99.90;;;;;;5010839;28;20330;-80
2021/12/11 06:27:11;;;;;;;;;;;0.90;99.90;;;;;;5031171;28;19917;-81
2021/12/11 06:29:37;;;;;;;;;;;1.00;99.90;;;;;;5028396;28;20395;-80
2021/12/11 06:32:03;;;;;;;;;;;1.10;99.90;;;;;;5028346;28;19913;-80
2021/12/11 06:34:28;;;;;;;;;;;1.00;99.90;;;;;;5030858;28;19971;-81
2021/12/11 06:36:54;;;;;;;;;;;1.00;99.90;;;;;;5031558;28;19916;-80
2021/12/11 06:39:22;;;;;;;;;;;1.00;99.90;;;;;;5018576;28;20308;-82
2021/12/11 06:41:50;;;;;;;;;;;1.00;99.90;;;;;;5029023;28;19975;-83
2021/12/11 06:44:16;;;;;;;;;;;1.00;99.90;;;;;;5029826;28;19913;-82
2021/12/11 06:46:42;;;;;;;;;;;1.00;99.90;;;;;;5035035;28;19916;-79
2021/12/11 06:49:08;;;;;;;;;;;1.10;99.90;;;;;;5017417;28;19974;-78
2021/12/11 06:51:34;;;;;;;;;;;1.10;99.90;;;;;;5018423;28;19916;-80
2021/12/11 06:54:04;;;;;;;;;;;1.10;99.90;;;;;;5033977;28;19921;-82
2021/12/11 06:56:29;;;;;;;;;;;1.10;99.90;;;;;;5034692;28;19909;-83
2021/12/11 06:58:55;;;;;;;;;;;1.10;99.90;;;;;;5031249;28;19912;-82
2021/12/11 07:01:22;;;;;;;;;;;1.10;99.90;;;;;;5032264;28;19967;-84
2021/12/11 07:03:48;;;;;;;;;;;1.10;99.90;;;;;;5015424;28;19959;-87
2021/12/11 07:06:15;;;;;;;;;;;1.10;99.90;;;;;;5015403;28;20387;-80
2021/12/11 07:08:41;;;;;;;;;;;1.00;99.90;;;;;;5032625;28;19913;-84
2021/12/11 07:11:09;;;;;;;;;;;1.00;99.90;;;;;;5033950;28;19920;-82
2021/12/11 07:13:34;;;;;;;;;;;1.00;99.90;;;;;;5034894;28;19959;-82
2021/12/11 07:16:00;;;;;;;;;;;1.10;99.90;;;;;;5031894;28;19913;-84
2021/12/11 07:18:27;;;;;;;;;;;1.00;99.90;;;;;;5030838;28;20063;-81
2021/12/11 07:20:53;;;;;;;;;;;1.00;99.90;;;;;;5035622;28;20265;-85
2021/12/11 07:23:20;;;;;;;;;;;1.10;99.90;;;;;;5018947;28;19916;-88
2021/12/11 07:25:48;;;;;;;;;;;1.00;99.90;;;;;;5019143;28;19919;-80
2021/12/11 07:28:15;;;;;;;;;;;1.00;99.90;;;;;;5032928;28;19923;-81
2021/12/11 07:30:41;;;;;;;;;;;1.00;99.90;;;;;;5004987;28;19945;-82
2021/12/11 07:33:07;;;;;;;;;;;1.00;99.90;;;;;;5043209;28;19931;-80
2021/12/11 07:35:34;;;;;;;;;;;1.00;99.90;;;;;;5041690;28;20404;-83
2021/12/11 07:37:59;;;;;;;;;;;1.00;99.90;;;;;;5040392;28;19908;-84
2021/12/11 07:40:26;;;;;;;;;;;1.00;99.90;;;;;;5044540;28;19956;-84
2021/12/11 07:42:52;;;;;;;;;;;1.00;99.90;;;;;;5038301;28;19917;-82
2021/12/11 07:45:19;;;;;;;;;;;1.00;99.90;;;;;;5018714;28;19986;-81
2021/12/11 07:47:45;;;;;;;;;;;1.00;99.90;;;;;;5031985;28;19909;-80
2021/12/11 07:50:11;;;;;;;;;;;1.10;99.90;;;;;;5035192;28;20323;-82
2021/12/11 07:52:37;;;;;;;;;;;1.10;99.90;;;;;;5034725;28;19999;-80
2021/12/11 07:55:04;;;;;;;;;;;1.10;99.90;;;;;;5013388;28;19912;-81
2021/12/11 07:57:30;;;;;;;;;;;1.10;99.90;;;;;;5035379;28;19917;-81
2021/12/11 07:59:55;;;;;;;;;;;1.00;99.90;;;;;;5034513;28;20470;-81
2021/12/11 08:02:21;;;;;;;;;;;1.10;99.90;;;;;;5021586;28;19917;-80
2021/12/11 08:04:46;;;;;;;;;;;1.20;99.90;;;;;;5034492;28;19986;-82
2021/12/11 08:07:13;;;;;;;;;;;1.20;99.90;;;;;;5033660;28;20399;-83
2021/12/11 08:09:39;;;;;;;;;;;1.20;99.90;;;;;;5013276;28;19915;-87
2021/12/11 08:12:05;;;;;;;;;;;1.30;99.90;;;;;;5022564;28;20557;-81
2021/12/11 08:14:30;;;;;;;;;;;1.30;99.90;;;;;;5016203;28;19917;-81
2021/12/11 08:16:58;;;;;;;;;;;1.30;99.90;;;;;;5031053;28;20486;-84
2021/12/11 08:19:25;;;;;;;;;;;1.20;99.90;;;;;;5030052;28;19956;-82
2021/12/11 08:21:52;;;;;;;;;;;1.20;99.90;;;;;;5033587;28;20295;-87
2021/12/11 08:24:18;;;;;;;;;;;1.30;99.90;;;;;;5017093;28;20324;-83
2021/12/11 08:26:44;;;;;;;;;;;1.30;99.90;;;;;;5030132;28;19913;-83
2021/12/11 08:29:11;;;;;;;;;;;1.40;99.90;;;;;;5033803;28;19921;-84
2021/12/11 08:31:38;;;;;;;;;;;1.40;99.90;;;;;;5032082;28;19940;-83
2021/12/11 08:34:04;;;;;;;;;;;1.50;99.90;;;;;;5018826;28;19916;-86
2021/12/11 08:36:29;;;;;;;;;;;1.50;99.90;;;;;;5034519;28;20284;-85
2021/12/11 08:38:56;;;;;;;;;;;1.50;99.90;;;;;;5025005;28;19913;-85
2021/12/11 08:41:23;;;;;;;;;;;1.50;99.90;;;;;;5017879;28;19920;-85
2021/12/11 08:43:56;;;;;;;;;;;1.50;99.90;;;;;;4995943;28;19967;-83
2021/12/11 08:46:27;;;;;;;;;;;1.50;99.90;;;;;;5042017;28;20475;-81
2021/12/11 08:48:54;;;;;;;;;;;1.50;99.90;;;;;;5038012;28;19913;-79
2021/12/11 08:51:25;;;;;;;;;;;1.60;99.90;;;;;;5030018;28;19913;-78
2021/12/11 08:53:51;;;;;;;;;;;1.60;99.90;;;;;;5030142;28;19912;-78
2021/12/11 08:56:16;;;;;;;;;;;1.60;99.90;;;;;;5015625;28;19912;-82
2021/12/11 08:58:43;;;;;;;;;;;1.70;99.90;;;;;;5025341;28;19986;-84
2021/12/11 09:01:11;;;;;;;;;;;1.60;99.90;;;;;;5015217;28;19964;-81
2021/12/11 09:03:41;;;;;;;;;;;1.60;99.90;;;;;;5034222;28;19910;-85
2021/12/11 09:06:10;;;;;;;;;;;1.50;99.90;;;;;;5032533;28;19963;-84
2021/12/11 09:08:43;;;;;;;;;;;1.70;99.90;;;;;;5027123;28;19994;-84
2021/12/11 09:11:12;;;;;;;;;;;1.80;99.90;;;;;;5033225;28;19909;-83
2021/12/11 09:13:58;;;;;;;;;;;1.70;99.90;;;;;;5033503;28;19913;-85
2021/12/11 09:16:32;;;;;;;;;;;1.70;99.90;;;;;;5031677;28;19963;-87
2021/12/11 09:19:05;;;;;;;;;;;1.80;99.90;;;;;;5027598;28;19909;-85
2021/12/11 09:21:34;;;;;;;;;;;1.80;99.90;;;;;;5015660;28;20283;-83
2021/12/11 09:24:24;;;;;;;;;;;1.90;99.90;;;;;;5017393;28;19917;-83
2021/12/11 09:26:50;;;;;;;;;;;1.90;99.90;;;;;;5019452;28;20153;-84
2021/12/11 09:29:23;;;;;;;;;;;1.90;99.90;;;;;;5028352;28;20311;-83
2021/12/11 09:31:59;;;;;;;;;;;2.00;99.90;;;;;;5031553;28;19956;-79
2021/12/11 09:34:27;;;;;;;;;;;2.00;99.90;;;;;;5014698;28;19909;-77
2021/12/11 09:36:56;;;;;;;;;;;2.10;99.90;;;;;;5032928;28;19920;-90
2021/12/11 09:39:25;;;;;;;;;;;2.20;99.90;;;;;;5020881;28;19922;-85
2021/12/11 09:41:51;;;;;;;;;;;2.20;99.90;;;;;;5032730;28;19916;-79
2021/12/11 09:44:16;;;;;;;;;;;2.30;99.90;;;;;;5030546;28;19913;-88
2021/12/11 09:46:42;;;;;;;;;;;2.30;99.90;;;;;;5022508;28;19912;-84
2021/12/11 09:49:08;;;;;;;;;;;2.30;99.90;;;;;;5030939;28;19916;-82
2021/12/11 09:51:39;;;;;;;;;;;2.20;99.90;;;;;;5023699;28;19917;-83
2021/12/11 09:54:11;;;;;;;;;;;2.10;99.90;;;;;;5032522;28;19951;-82
2021/12/11 09:56:42;;;;;;;;;;;2.20;99.90;;;;;;5032316;28;19909;-85
2021/12/11 09:59:09;;;;;;;;;;;2.10;99.90;;;;;;5031164;28;19917;-81
2021/12/11 10:01:39;;;;;;;;;;;2.00;99.90;;;;;;5031211;28;19913;-81
2021/12/11 10:04:09;;;;;;;;;;;2.00;99.90;;;;;;5029549;28;20454;-82
2021/12/11 10:06:45;;;;;;;;;;;2.00;99.90;;;;;;5024736;28;19917;-88
2021/12/11 10:09:26;;;;;;;;;;;2.00;99.90;;;;;;5012907;28;19913;-89
2021/12/11 10:12:03;;;;;;;;;;;2.00;99.90;;;;;;5029038;28;19935;-85
2021/12/11 10:14:31;;;;;;;;;;;2.00;99.90;;;;;;5031467;28;19916;-85
2021/12/11 10:16:58;;;;;;;;;;;2.00;99.90;;;;;;5014286;28;19921;-90
2021/12/11 10:19:29;;;;;;;;;;;2.10;99.90;;;;;;5029996;28;19944;-79
2021/12/11 10:21:59;;;;;;;;;;;2.30;99.90;;;;;;5030080;28;19909;-83
2021/12/11 10:24:27;;;;;;;;;;;2.30;99.90;;;;;;5031566;28;19913;-83
2021/12/11 10:26:54;;;;;;;;;;;2.30;99.90;;;;;;5027734;28;19917;-82
2021/12/11 10:29:20;;;;;;;;;;;2.30;99.90;;;;;;5031214;28;19943;-86
2021/12/11 10:31:48;;;;;;;;;;;2.20;99.90;;;;;;5031021;28;19925;-86
2021/12/11 10:34:15;;;;;;;;;;;2.20;99.90;;;;;;5031369;28;19945;-84
2021/12/11 10:36:43;;;;;;;;;;;2.10;99.90;;;;;;5010744;28;20303;-86
2021/12/11 10:39:10;;;;;;;;;;;2.10;99.90;;;;;;5010938;28;20007;-86
2021/12/11 10:41:39;;;;;;;;;;;2.30;99.90;;;;;;5017120;28;19930;-85
2021/12/11 10:44:06;;;;;;;;;;;2.30;99.90;;;;;;5033415;28;19909;-88
2021/12/11 10:46:36;;;;;;;;;;;2.40;99.90;;;;;;5033926;28;19935;-88
2021/12/11 10:49:04;;;;;;;;;;;2.30;99.90;;;;;;5012719;28;19995;-87
2021/12/11 10:51:32;;;;;;;;;;;2.40;99.90;;;;;;5035355;28;19914;-87
2021/12/11 10:53:59;;;;;;;;;;;2.50;99.90;;;;;;5021402;28;19909;-86
2021/12/11 10:56:25;;;;;;;;;;;2.50;99.90;;;;;;5031542;28;19916;-86
2021/12/11 10:59:03;;;;;;;;;;;2.50;99.90;;;;;;5027477;28;20096;-86
2021/12/11 11:01:38;;;;;;;;;;;2.60;99.90;;;;;;5013458;28;19966;-86
2021/12/11 11:04:07;;;;;;;;;;;2.50;99.90;;;;;;5031698;28;19956;-86
2021/12/11 11:06:33;;;;;;;;;;;2.50;99.90;;;;;;5030004;28;19959;-88
2021/12/11 11:08:59;;;;;;;;;;;2.50;99.90;;;;;;5012448;28;19913;-86
2021/12/11 11:11:27;;;;;;;;;;;2.50;99.90;;;;;;5016141;28;19912;-84
2021/12/11 11:13:53;;;;;;;;;;;2.60;99.90;;;;;;5018857;28;19979;-84
2021/12/11 11:16:20;;;;;;;;;;;2.60;99.90;;;;;;5030807;28;19909;-87
2021/12/11 11:18:46;;;;;;;;;;;2.50;99.90;;;;;;5028964;28;19994;-85
2021/12/11 11:21:17;;;;;;;;;;;2.30;99.90;;;;;;5030162;28;19951;-87
2021/12/11 11:23:44;;;;;;;;;;;2.30;99.90;;;;;;5026670;28;19913;-85
2021/12/11 11:26:14;;;;;;;;;;;2.20;99.90;;;;;;5034391;28;19913;-86
2021/12/11 11:28:39;;;;;;;;;;;2.10;99.90;;;;;;5036925;28;19913;-85
2021/12/11 11:31:08;;;;;;;;;;;2.20;99.90;;;;;;5032003;28;19928;-85
2021/12/11 11:33:34;;;;;;;;;;;2.20;99.90;;;;;;5037086;28;19913;-87
2021/12/11 11:36:00;;;;;;;;;;;2.20;99.90;;;;;;5025651;28;19992;-87
2021/12/11 11:38:27;;;;;;;;;;;2.20;99.90;;;;;;5007563;28;19913;-88
2021/12/11 11:40:55;;;;;;;;;;;2.20;99.90;;;;;;5039222;28;19928;-89
2021/12/11 11:43:21;;;;;;;;;;;2.30;99.90;;;;;;5024462;28;19917;-88
2021/12/11 11:45:52;;;;;;;;;;;2.30;99.90;;;;;;5005208;28;19925;-88
2021/12/11 11:48:19;;;;;;;;;;;2.40;99.90;;;;;;5007625;28;20299;-87
2021/12/11 11:50:46;;;;;;;;;;;2.40;99.90;;;;;;5040435;28;20376;-88
2021/12/11 11:53:12;;;;;;;;;;;2.60;99.90;;;;;;5036056;28;20376;-86
2021/12/11 11:55:48;;;;;;;;;;;2.70;99.90;;;;;;5022972;28;19928;-87
2021/12/11 11:58:14;;;;;;;;;;;2.60;99.90;;;;;;5040160;28;19913;-84
2021/12/11 12:00:42;;;;;;;;;;;2.60;99.90;;;;;;5036248;28;19913;-87
2021/12/11 12:03:09;;;;;;;;;;;2.60;99.90;;;;;;5036775;28;19972;-85
2021/12/11 12:05:36;;;;;;;;;;;2.70;99.90;;;;;;5045877;28;19913;-88
2021/12/11 12:08:03;;;;;;;;;;;2.60;99.90;;;;;;5044282;28;19917;-88
2021/12/11 12:10:29;;;;;;;;;;;2.70;99.90;;;;;;5036884;28;19917;-84
2021/12/11 12:12:54;;;;;;;;;;;2.60;99.90;;;;;;5031352;28;19917;-82
2021/12/11 12:15:25;;;;;;;;;;;2.60;99.90;;;;;;5040118;28;19912;-82
2021/12/11 12:17:51;;;;;;;;;;;2.70;99.90;;;;;;5035853;28;19956;-80
2021/12/11 12:20:17;;;;;;;;;;;2.80;99.90;;;;;;5032282;28;20355;-82
2021/12/11 12:22:44;;;;;;;;;;;2.80;99.90;;;;;;5032260;28;19913;-83
2021/12/11 12:25:09;;;;;;;;;;;2.80;99.90;;;;;;5037176;28;19921;-79
2021/12/11 12:27:36;;;;;;;;;;;2.80;99.90;;;;;;5037083;28;19924;-78
2021/12/11 12:30:05;;;;;;;;;;;2.90;99.90;;;;;;5037194;28;20295;-80
2021/12/11 12:32:32;;;;;;;;;;;2.80;99.90;;;;;;5014323;28;19967;-79
2021/12/11 12:35:00;;;;;;;;;;;2.70;99.90;;;;;;5017458;28;19920;-81
2021/12/11 12:37:26;;;;;;;;;;;2.70;99.90;;;;;;5034139;28;19917;-78
2021/12/11 12:39:53;;;;;;;;;;;2.70;99.90;;;;;;5032197;28;19924;-80
2021/12/11 12:42:36;;;;;;;;;;;2.70;99.90;;;;;;5030326;28;19932;-79
2021/12/11 12:45:12;;;;;;;;;;;2.60;99.90;;;;;;5030240;28;19960;-78
2021/12/11 12:47:41;;;;;;;;;;;2.40;99.90;;;;;;5029778;28;19938;-79
2021/12/11 12:50:10;;;;;;;;;;;2.30;99.90;;;;;;5031481;28;20180;-80
2021/12/11 12:52:39;;;;;;;;;;;2.30;99.90;;;;;;5033238;28;20441;-82
2021/12/11 12:55:07;;;;;;;;;;;2.40;99.90;;;;;;5029520;28;19956;-81
2021/12/11 12:57:34;;;;;;;;;;;2.50;99.90;;;;;;5031366;28;19924;-80
2021/12/11 13:00:18;;;;;;;;;;;2.50;99.90;;;;;;5031451;28;19924;-87
2021/12/11 13:02:45;;;;;;;;;;;2.50;99.90;;;;;;5027194;28;20348;-87
2021/12/11 13:05:32;;;;;;;;;;;2.60;99.90;;;;;;5013563;28;19917;-84
2021/12/11 13:08:00;;;;;;;;;;;2.50;99.90;;;;;;5030697;28;19964;-81
2021/12/11 13:10:37;;;;;;;;;;;2.50;99.90;;;;;;5015777;28;19917;-83
2021/12/11 13:13:04;;;;;;;;;;;2.60;99.90;;;;;;5030817;28;20381;-82
2021/12/11 13:15:36;;;;;;;;;;;2.60;99.90;;;;;;5028801;28;19949;-85
2021/12/11 13:18:04;;;;;;;;;;;2.50;99.90;;;;;;5013816;28;20011;-83
2021/12/11 13:20:32;;;;;;;;;;;2.50;99.90;;;;;;5015390;28;19913;-79
2021/12/11 13:22:59;;;;;;;;;;;2.40;99.90;;;;;;5032480;28;19959;-87
2021/12/11 13:25:27;;;;;;;;;;;2.50;99.90;;;;;;5037375;28;19921;-86
2021/12/11 13:27:54;;;;;;;;;;;2.20;99.90;;;;;;5032357;28;19917;-84
2021/12/11 13:30:22;;;;;;;;;;;2.30;99.90;;;;;;5014640;28;19960;-83
2021/12/11 13:32:48;;;;;;;;;;;2.30;99.90;;;;;;4999283;28;19913;-82
2021/12/11 13:35:24;;;;;;;;;;;2.30;99.90;;;;;;5032814;28;19916;-80
2021/12/11 13:37:50;;;;;;;;;;;2.40;99.90;;;;;;5021996;28;19976;-81
2021/12/11 13:40:17;;;;;;;;;;;2.50;99.90;;;;;;5015011;28;20354;-84
2021/12/11 13:42:44;;;;;;;;;;;2.60;99.90;;;;;;5015151;28;19920;-83
2021/12/11 13:45:15;;;;;;;;;;;2.60;99.90;;;;;;5030110;28;19909;-82
2021/12/11 13:47:40;;;;;;;;;;;2.70;99.90;;;;;;5033165;28;19959;-81
2021/12/11 13:50:26;;;;;;;;;;;2.70;99.90;;;;;;5029184;28;20635;-84
2021/12/11 13:52:53;;;;;;;;;;;2.70;99.90;;;;;;5032028;28;19955;-84
2021/12/11 13:55:19;;;;;;;;;;;2.60;99.90;;;;;;5013462;28;19963;-85
2021/12/11 13:57:45;;;;;;;;;;;2.30;99.90;;;;;;5016418;28;19920;-82
2021/12/11 14:00:14;;;;;;;;;;;2.20;99.90;;;;;;5033997;28;19932;-84
2021/12/11 14:02:39;;;;;;;;;;;2.10;99.90;;;;;;5032269;28;19952;-82
2021/12/11 14:05:06;;;;;;;;;;;2.20;99.90;;;;;;5025242;28;19952;-83
2021/12/11 14:07:36;;;;;;;;;;;2.30;99.90;;;;;;4996482;28;20375;-84
2021/12/11 14:10:06;;;;;;;;;;;2.30;99.90;;;;;;4999879;28;19992;-82
2021/12/11 14:12:32;;;;;;;;;;;2.30;99.90;;;;;;5031732;28;19971;-84
2021/12/11 14:14:58;;;;;;;;;;;2.30;99.90;;;;;;5026707;28;20380;-84
2021/12/11 14:17:25;;;;;;;;;;;2.20;99.90;;;;;;5023974;28;19966;-83
2021/12/11 14:19:51;;;;;;;;;;;2.20;99.90;;;;;;5038560;28;19916;-83
2021/12/11 14:22:18;;;;;;;;;;;2.10;99.90;;;;;;5030688;28;19916;-84
2021/12/11 14:24:44;;;;;;;;;;;2.00;99.90;;;;;;5032191;28;20000;-84
2021/12/11 14:27:14;;;;;;;;;;;1.90;99.90;;;;;;5028070;28;20033;-85
2021/12/11 14:29:45;;;;;;;;;;;1.90;99.90;;;;;;5008539;28;19915;-85
2021/12/11 14:32:19;;;;;;;;;;;1.90;99.90;;;;;;5012468;28;20360;-82
2021/12/11 14:34:45;;;;;;;;;;;1.90;99.90;;;;;;5030760;28;19913;-84
2021/12/11 14:37:11;;;;;;;;;;;2.00;99.90;;;;;;5030701;28;19917;-88
2021/12/11 14:39:37;;;;;;;;;;;1.80;99.90;;;;;;5032642;28;19917;-89
2021/12/11 14:42:03;;;;;;;;;;;1.80;99.90;;;;;;5031884;28;20339;-87
2021/12/11 14:44:30;;;;;;;;;;;1.70;99.90;;;;;;5031368;28;19962;-89
2021/12/11 14:47:02;;;;;;;;;;;1.70;99.90;;;;;;5029940;28;19928;-87
2021/12/11 14:49:28;;;;;;;;;;;1.60;99.90;;;;;;5022473;28;19935;-88
2021/12/11 14:51:54;;;;;;;;;;;1.60;99.90;;;;;;5006340;28;19929;-89
2021/12/11 14:54:19;;;;;;;;;;;1.60;99.90;;;;;;5027963;28;20456;-88